Time;durP1;ratioP1;P1;durP2;ratioP2;P2;SDS_P1;SDS_P2;PMS_P1;PMS_P2;Temp;Humidity;BMP_temperature;BMP_pressure;BME280_temperature;BME280_humidity;BME280_pressure;Samples;Min_cycle;Max_cycle;Signal;HPM_P1;HPM_P2
2024/01/13 00:00:08;;;;;;;22.95;11.50;;;;;;;-4.99;100.00;61481.03;5087601;28;20449;-75
2024/01/13 00:02:35;;;;;;;16.95;8.20;;;;;;;-4.95;100.00;61492.56;5080412;28;20226;-76
2024/01/13 00:05:03;;;;;;;22.25;10.70;;;;;;;-5.08;100.00;61479.31;5085285;28;20269;-75
2024/01/13 00:07:30;;;;;;;16.20;8.52;;;;;;;-5.12;100.00;61475.22;5086303;28;20250;-76
2024/01/13 00:09:58;;;;;;;9.32;7.38;;;;;;;-5.06;100.00;61483.81;5082243;28;20306;-76
2024/01/13 00:12:25;;;;;;;13.25;6.20;;;;;;;-5.13;100.00;61477.22;5082966;28;20242;-76
2024/01/13 00:14:52;;;;;;;14.73;6.43;;;;;;;-5.03;100.00;61487.41;5085315;28;20224;-76
2024/01/13 00:17:19;;;;;;;14.80;7.13;;;;;;;-4.99;100.00;61491.47;5081279;28;20292;-75
2024/01/13 00:19:46;;;;;;;16.70;8.23;;;;;;;-4.86;99.69;61502.25;5084955;28;20216;-76
2024/01/13 00:22:13;;;;;;;13.07;7.30;;;;;;;-4.91;97.71;61494.16;5085466;28;20204;-77
2024/01/13 00:24:40;;;;;;;15.60;7.18;;;;;;;-4.85;98.53;61503.25;5085798;28;20220;-76
2024/01/13 00:27:08;;;;;;;17.38;9.55;;;;;;;-4.96;96.25;61496.50;5086920;28;20209;-75
2024/01/13 00:29:35;;;;;;;16.65;8.77;;;;;;;-4.91;95.92;61499.63;5082918;28;20212;-75
2024/01/13 00:32:02;;;;;;;13.25;7.85;;;;;;;-4.87;95.77;61500.72;5082958;28;20216;-77
2024/01/13 00:34:29;;;;;;;16.83;8.52;;;;;;;-4.86;95.74;61504.72;5084413;28;20232;-76
2024/01/13 00:36:56;;;;;;;18.42;10.27;;;;;;;-4.85;95.61;61505.25;5083658;28;20561;-75
2024/01/13 00:39:23;;;;;;;19.27;8.98;;;;;;;-4.83;95.17;61509.75;5083837;28;20224;-75
2024/01/13 00:41:50;;;;;;;10.00;4.88;;;;;;;-5.02;95.03;61480.47;5082416;28;20258;-75
2024/01/13 00:44:18;;;;;;;13.88;8.40;;;;;;;-4.88;96.43;61502.69;5082717;28;20227;-76
2024/01/13 00:46:45;;;;;;;12.63;5.03;;;;;;;-5.03;95.58;61486.88;5084446;28;20200;-76
2024/01/13 00:49:12;;;;;;;15.23;7.25;;;;;;;-5.10;96.55;61477.78;5085231;28;20216;-75
2024/01/13 00:51:39;;;;;;;17.02;7.85;;;;;;;-5.18;97.55;61474.06;5083949;28;20211;-74
2024/01/13 00:54:06;;;;;;;7.75;5.25;;;;;;;-5.14;98.35;61473.19;5081758;28;20219;-76
2024/01/13 00:56:33;;;;;;;14.93;8.02;;;;;;;-5.14;98.72;61470.72;5081106;28;20215;-77
2024/01/13 00:59:00;;;;;;;18.45;8.57;;;;;;;-5.19;98.60;61478.53;5084240;28;20258;-74
2024/01/13 01:01:29;;;;;;;20.95;10.95;;;;;;;-5.23;99.22;61468.97;5084681;28;20240;-76
2024/01/13 01:03:55;;;;;;;18.27;8.23;;;;;;;-5.16;99.84;61471.16;5080124;28;20204;-76
2024/01/13 01:06:22;;;;;;;7.82;6.20;;;;;;;-5.18;98.26;61469.13;5084630;28;20242;-77
2024/01/13 01:08:49;;;;;;;23.52;11.05;;;;;;;-5.07;99.81;61480.31;5083935;28;20212;-76
2024/01/13 01:11:16;;;;;;;12.80;7.28;;;;;;;-5.03;98.00;61482.44;5085986;28;20543;-75
2024/01/13 01:13:43;;;;;;;13.45;7.00;;;;;;;-5.07;97.17;61482.81;5086411;28;20500;-76
2024/01/13 01:16:09;;;;;;;16.23;7.50;;;;;;;-5.01;98.09;61489.44;5084079;28;20285;-76
2024/01/13 01:18:38;;;;;;;21.67;9.95;;;;;;;-4.88;98.69;61502.16;5081558;28;20264;-76
2024/01/13 01:21:05;;;;;;;16.70;7.78;;;;;;;-4.77;97.29;61510.91;5083828;28;20292;-75
2024/01/13 01:23:32;;;;;;;19.80;10.23;;;;;;;-4.83;96.42;61509.75;5083830;28;20208;-77
2024/01/13 01:25:59;;;;;;;19.27;10.13;;;;;;;-4.73;96.45;61519.97;5084055;28;20247;-76
2024/01/13 01:28:26;;;;;;;17.73;9.48;;;;;;;-4.87;96.48;61503.69;5079868;28;20556;-76
2024/01/13 01:30:52;;;;;;;13.88;7.40;;;;;;;-4.80;97.62;61505.38;5083862;28;20246;-76
2024/01/13 01:33:19;;;;;;;19.35;10.45;;;;;;;-4.71;97.91;61522.00;5081880;28;20461;-75
2024/01/13 01:35:48;;;;;;;19.45;9.13;;;;;;;-4.61;96.08;61529.22;5083762;28;20412;-74
2024/01/13 01:38:15;;;;;;;16.65;9.10;;;;;;;-4.52;96.13;61538.88;5087955;28;20254;-76
2024/01/13 01:40:41;;;;;;;17.02;9.00;;;;;;;-4.58;94.74;61529.78;5087780;28;20326;-75
2024/01/13 01:43:08;;;;;;;17.55;10.85;;;;;;;-4.43;95.47;61543.09;5085055;28;20215;-75
2024/01/13 01:45:35;;;;;;;19.55;10.10;;;;;;;-4.60;95.31;61530.72;5085132;28;20282;-75
2024/01/13 01:48:03;;;;;;;18.75;9.80;;;;;;;-4.60;95.91;61530.22;5086694;28;20205;-76
2024/01/13 01:50:30;;;;;;;12.95;8.00;;;;;;;-4.50;95.88;61540.44;5087438;28;20289;-76
2024/01/13 01:52:58;;;;;;;16.35;8.18;;;;;;;-4.52;96.11;61538.38;5087747;28;20232;-75
2024/01/13 01:55:25;;;;;;;17.38;9.63;;;;;;;-4.51;95.55;61542.41;5085441;28;20215;-79
2024/01/13 01:57:52;;;;;;;17.25;8.93;;;;;;;-4.45;93.51;61546.03;5086342;28;20246;-76
2024/01/13 02:00:19;;;;;;;15.23;7.35;;;;;;;-4.53;93.75;61540.34;5087187;28;20216;-75
2024/01/13 02:02:46;;;;;;;14.40;8.55;;;;;;;-4.72;93.19;61516.53;5090448;28;20238;-75
2024/01/13 02:05:13;;;;;;;22.02;11.20;;;;;;;-4.77;94.96;61510.91;5084235;28;20232;-76
2024/01/13 02:07:39;;;;;;;18.38;10.77;;;;;;;-4.68;95.19;61517.09;5087816;28;20249;-77
2024/01/13 02:10:11;;;;;;;18.05;9.95;;;;;;;-4.66;94.89;61524.63;5086987;28;20261;-75
2024/01/13 02:12:37;;;;;;;9.65;6.55;;;;;;;-4.70;92.99;61515.56;5083302;28;20500;-76
2024/01/13 02:15:05;;;;;;;17.00;8.50;;;;;;;-4.80;93.77;61510.34;5087041;28;20231;-76
2024/01/13 02:17:32;;;;;;;16.73;9.35;;;;;;;-4.88;93.64;61500.22;5087192;28;20212;-75
2024/01/13 02:20:01;;;;;;;18.05;8.73;;;;;;;-4.74;94.35;61514.47;5084907;28;20247;-75
2024/01/13 02:22:29;;;;;;;16.75;8.80;;;;;;;-4.80;94.79;61510.34;5084717;28;20204;-76
2024/01/13 02:24:56;;;;;;;16.20;7.95;;;;;;;-4.68;94.51;61525.06;5091240;28;20261;-75
2024/01/13 02:27:23;;;;;;;16.75;8.93;;;;;;;-4.65;94.31;61527.59;5087187;28;20533;-76
2024/01/13 02:29:49;;;;;;;17.55;9.30;;;;;;;-4.55;92.87;61535.84;5084822;28;20225;-74
2024/01/13 02:32:16;;;;;;;21.52;10.40;;;;;;;-4.58;92.68;61534.75;5085257;28;20300;-76
2024/01/13 02:34:43;;;;;;;13.15;8.65;;;;;;;-4.62;92.45;61521.25;5085605;28;20216;-74
2024/01/13 02:37:10;;;;;;;16.08;9.15;;;;;;;-4.89;94.00;61498.69;5084836;28;20266;-74
2024/01/13 02:39:38;;;;;;;20.20;10.23;;;;;;;-4.96;95.77;61491.53;5085752;28;20441;-75
2024/01/13 02:42:06;;;;;;;20.90;10.15;;;;;;;-4.91;96.49;61494.16;5084524;28;20242;-76
2024/01/13 02:44:33;;;;;;;21.77;9.80;;;;;;;-4.86;97.53;61501.72;5084903;28;20220;-75
2024/01/13 02:46:59;;;;;;;17.90;8.85;;;;;;;-4.89;96.42;61498.69;5083398;28;20232;-75
2024/01/13 02:49:26;;;;;;;20.48;9.43;;;;;;;-4.82;95.18;61508.31;5086420;28;20230;-77
2024/01/13 02:51:53;;;;;;;15.20;7.10;;;;;;;-4.99;96.27;61493.44;5089084;28;20275;-75
2024/01/13 02:54:20;;;;;;;11.00;6.72;;;;;;;-5.07;97.92;61480.31;5085877;28;20248;-77
2024/01/13 02:56:48;;;;;;;18.42;8.32;;;;;;;-5.03;95.67;61486.88;5085425;28;20535;-75
2024/01/13 02:59:15;;;;;;;19.33;9.32;;;;;;;-5.08;96.00;61484.28;5084471;28;20228;-76
2024/01/13 03:01:43;;;;;;;14.88;8.43;;;;;;;-5.08;96.81;61484.28;5084742;28;20212;-76
2024/01/13 03:04:09;;;;;;;17.52;9.15;;;;;;;-5.14;97.80;61476.19;5083226;28;20224;-77
2024/01/13 03:06:36;;;;;;;22.42;10.20;;;;;;;-5.14;98.65;61470.72;5081947;28;20228;-76
2024/01/13 03:09:03;;;;;;;23.45;10.88;;;;;;;-5.11;99.13;61478.72;5086087;28;20709;-75
2024/01/13 03:11:30;;;;;;;20.65;10.07;;;;;;;-5.11;98.98;61481.22;5082745;28;20219;-75
2024/01/13 03:13:58;;;;;;;16.77;9.80;;;;;;;-4.98;98.54;61487.00;5085918;28;20207;-74
2024/01/13 03:16:25;;;;;;;15.00;8.93;;;;;;;-5.10;99.39;61482.75;5087122;28;20235;-76
2024/01/13 03:18:52;;;;;;;17.10;9.50;;;;;;;-5.16;99.30;61471.16;5077971;28;20458;-76
2024/01/13 03:21:19;;;;;;;14.40;8.40;;;;;;;-5.29;100.00;61458.41;5082439;28;20201;-76
2024/01/13 03:23:46;;;;;;;13.07;6.07;;;;;;;-5.23;100.00;61471.97;5085323;28;20537;-75
2024/01/13 03:26:13;;;;;;;13.60;7.85;;;;;;;-5.17;100.00;61477.56;5084990;28;20232;-75
2024/01/13 03:28:40;;;;;;;20.75;9.57;;;;;;;-5.10;100.00;61477.25;5082424;28;20204;-76
2024/01/13 03:31:08;;;;;;;17.40;7.55;;;;;;;-4.98;100.00;61490.00;5084956;28;20228;-74
2024/01/13 03:33:35;;;;;;;18.42;8.10;;;;;;;-5.07;99.79;61480.84;5085938;28;20247;-75
2024/01/13 03:36:02;;;;;;;13.02;7.32;;;;;;;-5.02;100.00;61490.88;5084124;28;20296;-76
2024/01/13 03:38:29;;;;;;;20.83;8.75;;;;;;;-4.93;100.00;61495.09;5087471;28;20272;-75
2024/01/13 03:40:55;;;;;;;12.95;8.48;;;;;;;-4.99;100.00;61490.97;5085267;28;20231;-75
2024/01/13 03:43:22;;;;;;;17.02;8.80;;;;;;;-4.96;100.00;61498.97;5084926;28;20529;-75
2024/01/13 03:45:49;;;;;;;22.98;10.60;;;;;;;-4.95;100.00;61495.03;5080396;28;20493;-76
2024/01/13 03:48:18;;;;;;;11.35;7.05;;;;;;;-4.86;100.00;61504.72;5084346;28;20223;-76
2024/01/13 03:50:45;;;;;;;18.38;8.55;;;;;;;-4.85;100.00;61507.72;5085404;28;20232;-76
2024/01/13 03:53:11;;;;;;;16.60;9.60;;;;;;;-4.87;100.00;61500.72;5084396;28;20250;-75
2024/01/13 03:55:38;;;;;;;23.23;11.48;;;;;;;-4.88;100.00;61504.66;5082455;28;20232;-75
2024/01/13 03:58:06;;;;;;;22.20;10.35;;;;;;;-4.90;100.00;61500.16;5083837;28;20357;-75
2024/01/13 04:00:34;;;;;;;17.80;9.00;;;;;;;-5.26;100.00;61468.38;5089680;28;20220;-75
2024/01/13 04:03:01;;;;;;;16.00;8.77;;;;;;;-4.96;100.00;61492.06;5085021;28;20204;-74
2024/01/13 04:05:29;;;;;;;15.80;7.95;;;;;;;-5.19;100.00;61468.09;5081022;28;20398;-75
2024/01/13 04:07:56;;;;;;;21.73;10.70;;;;;;;-5.29;100.00;61467.81;5084219;28;20197;-75
2024/01/13 04:10:23;;;;;;;23.10;11.13;;;;;;;-5.27;100.00;61457.47;5083127;28;20283;-75
2024/01/13 04:12:50;;;;;;;12.43;7.40;;;;;;;-5.39;100.00;61452.66;5083570;28;20205;-75
2024/01/13 04:15:16;;;;;;;16.58;9.07;;;;;;;-5.51;100.00;61433.00;5081582;28;20224;-76
2024/01/13 04:17:43;;;;;;;25.10;10.90;;;;;;;-5.66;100.00;61420.69;5084588;28;20232;-76
2024/01/13 04:20:11;;;;;;;21.13;10.43;;;;;;;-5.75;100.00;61413.50;5079025;28;20240;-76
2024/01/13 04:22:39;;;;;;;17.17;9.98;;;;;;;-5.70;100.00;61416.13;5083891;28;20213;-77
2024/01/13 04:25:06;;;;;;;16.40;9.07;;;;;;;-5.71;100.00;61418.09;5086298;28;20246;-77
2024/01/13 04:27:33;;;;;;;17.00;10.10;;;;;;;-5.67;100.00;61424.66;5084091;28;20232;-76
2024/01/13 04:30:00;;;;;;;28.08;11.32;;;;;;;-5.69;100.00;61425.09;5083220;28;20537;-76
2024/01/13 04:32:27;;;;;;;20.55;9.48;;;;;;;-5.70;100.00;61426.03;5082850;28;20371;-76
2024/01/13 04:34:54;;;;;;;21.73;9.73;;;;;;;-5.75;100.00;61416.50;5082644;28;20232;-75
2024/01/13 04:37:21;;;;;;;17.15;8.80;;;;;;;-5.74;100.00;61417.50;5083262;28;20270;-75
2024/01/13 04:39:49;;;;;;;16.02;9.30;;;;;;;-5.82;100.00;61411.34;5084565;28;20240;-76
2024/01/13 04:42:16;;;;;;;28.98;12.30;;;;;;;-5.76;100.00;61408.03;5081860;28;20497;-76
2024/01/13 04:44:42;;;;;;;23.08;11.25;;;;;;;-5.78;100.00;61413.44;5082918;28;20222;-76
2024/01/13 04:47:09;;;;;;;27.90;13.20;;;;;;;-5.78;100.00;61418.38;5082188;28;20266;-75
2024/01/13 04:49:36;;;;;;;24.95;12.48;;;;;;;-5.74;100.00;61409.56;5085196;28;20220;-75
2024/01/13 04:52:03;;;;;;;27.33;10.85;;;;;;;-5.76;100.00;61414.97;5081363;28;20200;-74
2024/01/13 04:54:30;;;;;;;24.15;12.43;;;;;;;-5.70;100.00;61421.59;5070831;28;20216;-75
2024/01/13 04:56:59;;;;;;;23.30;12.13;;;;;;;-5.73;100.00;61413.06;5084092;28;20204;-74
2024/01/13 04:59:26;;;;;;;23.88;11.57;;;;;;;-5.71;100.00;61418.09;5085441;28;20215;-74
2024/01/13 05:01:53;;;;;;;21.17;11.48;;;;;;;-5.70;100.00;61416.13;5082422;28;20313;-75
2024/01/13 05:04:21;;;;;;;19.70;10.45;;;;;;;-5.68;100.00;61418.69;5084019;28;20225;-76
2024/01/13 05:06:48;;;;;;;22.35;11.40;;;;;;;-5.60;100.00;61431.78;5082439;28;20224;-76
2024/01/13 05:09:15;;;;;;;23.40;10.30;;;;;;;-5.76;100.00;61419.94;5084600;28;20266;-75
2024/01/13 05:11:42;;;;;;;9.55;5.78;;;;;;;-5.68;100.00;61423.13;5086811;28;20254;-76
2024/01/13 05:14:10;;;;;;;15.25;8.63;;;;;;;-5.72;100.00;61424.50;5083519;28;20246;-75
2024/01/13 05:16:37;;;;;;;19.55;9.73;;;;;;;-5.78;100.00;61410.94;5080288;28;20220;-76
2024/01/13 05:19:04;;;;;;;15.82;8.18;;;;;;;-5.73;100.00;61411.09;5083891;28;20242;-75
2024/01/13 05:21:31;;;;;;;14.65;6.90;;;;;;;-5.76;100.00;61414.97;5081943;28;20235;-76
2024/01/13 05:23:58;;;;;;;15.05;7.38;;;;;;;-5.69;100.00;61417.66;5083655;28;20363;-76
2024/01/13 05:26:25;;;;;;;12.60;7.88;;;;;;;-5.79;100.00;61411.91;5082723;28;20297;-76
2024/01/13 05:28:52;;;;;;;14.30;7.22;;;;;;;-5.78;100.00;61418.38;5083649;28;20557;-75
2024/01/13 05:31:21;;;;;;;16.67;8.48;;;;;;;-5.85;100.00;61408.81;5085396;28;20494;-75
2024/01/13 05:33:48;;;;;;;15.10;8.13;;;;;;;-5.84;100.00;61399.41;5089481;28;20239;-75
2024/01/13 05:36:15;;;;;;;5.88;4.55;;;;;;;-5.84;100.00;61402.38;5079253;28;20242;-74
2024/01/13 05:38:42;;;;;;;12.50;7.68;;;;;;;-5.87;100.00;61401.81;5082316;28;20270;-74
2024/01/13 05:41:10;;;;;;;16.00;9.07;;;;;;;-5.91;100.00;61397.75;5082161;28;20586;-75
2024/01/13 05:43:37;;;;;;;15.40;7.53;;;;;;;-5.92;100.00;61402.19;5082365;28;20204;-75
2024/01/13 05:46:04;;;;;;;14.35;7.95;;;;;;;-5.89;100.00;61401.75;5080534;28;20258;-75
2024/01/13 05:48:33;;;;;;;14.00;7.88;;;;;;;-5.85;100.00;61406.34;5084104;28;20418;-75
2024/01/13 05:50:59;;;;;;;15.93;8.18;;;;;;;-5.90;100.00;61396.28;5082668;28;20240;-75
2024/01/13 05:53:26;;;;;;;15.70;8.27;;;;;;;-5.92;100.00;61399.69;5082836;28;20220;-76
2024/01/13 05:55:53;;;;;;;9.68;6.38;;;;;;;-5.90;100.00;61393.78;5083586;28;20220;-76
2024/01/13 05:58:20;;;;;;;18.25;9.60;;;;;;;-5.95;100.00;61388.69;5082390;28;20611;-76
2024/01/13 06:00:47;;;;;;;14.98;9.10;;;;;;;-5.94;100.00;61394.69;5082307;28;20435;-76
2024/01/13 06:03:15;;;;;;;18.45;9.70;;;;;;;-5.92;100.00;61397.22;5082155;28;20567;-76
2024/01/13 06:05:43;;;;;;;18.40;9.20;;;;;;;-5.88;100.00;61395.34;5085531;28;20283;-75
2024/01/13 06:08:10;;;;;;;16.88;8.77;;;;;;;-5.89;100.00;61396.78;5084869;28;20459;-75
2024/01/13 06:10:36;;;;;;;14.48;9.25;;;;;;;-5.95;100.00;61398.59;5082349;28;20430;-75
2024/01/13 06:13:04;;;;;;;15.00;7.68;;;;;;;-5.95;100.00;61388.69;5080844;28;20242;-75
2024/01/13 06:15:30;;;;;;;17.55;7.93;;;;;;;-5.88;100.00;61398.31;5083301;28;20225;-76
2024/01/13 06:17:57;;;;;;;7.85;4.97;;;;;;;-5.86;100.00;61407.25;5082204;28;20201;-77
2024/01/13 06:20:24;;;;;;;13.32;7.90;;;;;;;-5.86;100.00;61405.31;5078388;28;20248;-75
2024/01/13 06:22:52;;;;;;;14.57;8.10;;;;;;;-5.97;100.00;61392.13;5082131;28;20223;-75
2024/01/13 06:25:19;;;;;;;10.60;5.60;;;;;;;-5.95;100.00;61391.19;5083075;28;20220;-76
2024/01/13 06:27:47;;;;;;;17.13;8.05;;;;;;;-5.86;100.00;61407.78;5087120;28;20232;-77
2024/01/13 06:30:16;;;;;;;13.38;7.68;;;;;;;-5.77;100.00;61416.94;5090525;28;20255;-78
2024/01/13 06:32:42;;;;;;;17.40;8.82;;;;;;;-5.83;100.00;61410.34;5085834;28;20505;-76
2024/01/13 06:35:09;;;;;;;15.98;7.93;;;;;;;-5.64;100.00;61424.72;5084366;28;20231;-75
2024/01/13 06:37:36;;;;;;;13.93;6.93;;;;;;;-5.62;100.00;61429.22;5081337;28;20197;-77
2024/01/13 06:40:05;;;;;;;15.55;8.82;;;;;;;-5.51;100.00;61435.47;5083218;28;20405;-76
2024/01/13 06:42:34;;;;;;;18.35;8.73;;;;;;;-5.52;100.00;61437.44;5087428;28;20270;-76
2024/01/13 06:45:01;;;;;;;18.48;8.18;;;;;;;-5.56;100.00;61435.34;5081543;28;20220;-77
2024/01/13 06:47:28;;;;;;;12.45;7.45;;;;;;;-5.45;100.00;61439.13;5084376;28;20255;-77
2024/01/13 06:49:55;;;;;;;15.25;8.73;;;;;;;-5.48;100.00;61445.97;5084177;28;20225;-77
2024/01/13 06:52:22;;;;;;;15.75;8.30;;;;;;;-5.43;100.00;61446.09;5085058;28;20237;-76
2024/01/13 06:54:48;;;;;;;15.15;8.52;;;;;;;-5.29;100.00;61457.91;5087548;28;20278;-76
2024/01/13 06:57:17;;;;;;;18.77;8.95;;;;;;;-5.22;100.00;61470.50;5088691;28;20261;-76
2024/01/13 06:59:44;;;;;;;18.17;9.10;;;;;;;-5.16;100.00;61473.63;5083873;28;20391;-76
2024/01/13 07:02:10;;;;;;;18.88;9.40;;;;;;;-5.16;99.94;61468.69;5084757;28;20207;-75
2024/01/13 07:04:38;;;;;;;19.35;9.50;;;;;;;-5.17;99.25;61472.59;5084302;28;20213;-76
2024/01/13 07:07:04;;;;;;;20.52;9.75;;;;;;;-5.13;99.53;61474.22;5081035;28;20230;-77
2024/01/13 07:09:31;;;;;;;16.38;8.77;;;;;;;-4.90;98.96;61498.16;5084856;28;20247;-76
2024/01/13 07:11:58;;;;;;;17.88;7.93;;;;;;;-4.94;96.92;61491.63;5083824;28;20250;-76
2024/01/13 07:14:26;;;;;;;16.52;7.70;;;;;;;-4.87;96.35;61503.19;5082410;28;20316;-76
2024/01/13 07:16:54;;;;;;;16.30;8.75;;;;;;;-4.78;96.65;61512.38;5084301;28;20200;-75
2024/01/13 07:19:21;;;;;;;12.35;6.95;;;;;;;-4.81;96.80;61509.81;5084361;28;20208;-76
2024/01/13 07:21:48;;;;;;;18.92;8.90;;;;;;;-4.82;97.43;61510.78;5090433;28;20346;-76
2024/01/13 07:24:15;;;;;;;13.80;7.95;;;;;;;-4.68;97.34;61519.59;5081984;28;20220;-77
2024/01/13 07:26:41;;;;;;;12.55;7.38;;;;;;;-4.66;96.91;61519.66;5080633;28;20196;-78
2024/01/13 07:29:08;;;;;;;12.57;7.55;;;;;;;-4.89;96.31;61501.16;5083006;28;20221;-76
2024/01/13 07:31:37;;;;;;;17.83;8.85;;;;;;;-4.78;97.48;61507.91;5083529;28;20207;-77
2024/01/13 07:34:03;;;;;;;17.83;9.20;;;;;;;-4.57;96.95;61536.28;5081636;28;20212;-75
2024/01/13 07:36:30;;;;;;;14.85;8.07;;;;;;;-4.58;97.49;61530.28;5080899;28;20239;-77
2024/01/13 07:38:57;;;;;;;16.45;9.50;;;;;;;-4.75;97.04;61515.44;5082493;28;20382;-76
2024/01/13 07:41:24;;;;;;;18.10;9.45;;;;;;;-4.73;98.53;61520.47;5082487;28;20201;-76
2024/01/13 07:43:51;;;;;;;15.90;8.60;;;;;;;-4.77;98.67;61510.91;5085683;28;20227;-75
2024/01/13 07:46:18;;;;;;;14.43;7.82;;;;;;;-4.82;98.42;61513.25;5080835;28;20216;-74
2024/01/13 07:48:47;;;;;;;14.88;8.25;;;;;;;-4.79;99.11;61508.88;5083744;28;20350;-77
2024/01/13 07:51:13;;;;;;;11.38;6.97;;;;;;;-4.71;98.36;61517.53;5082030;28;20196;-75
2024/01/13 07:53:41;;;;;;;18.33;8.50;;;;;;;-4.61;98.45;61532.19;5084644;28;20204;-75
2024/01/13 07:56:08;;;;;;;15.98;9.20;;;;;;;-4.57;98.33;61533.28;5083096;28;20398;-77
2024/01/13 07:58:35;;;;;;;13.38;8.68;;;;;;;-4.59;97.42;61528.75;5079749;28;20205;-76
2024/01/13 08:01:02;;;;;;;16.80;9.35;;;;;;;-4.63;98.59;61522.19;5078408;28;20228;-75
2024/01/13 08:03:29;;;;;;;18.33;9.95;;;;;;;-4.62;99.04;61528.69;5081095;28;20372;-74
2024/01/13 08:05:59;;;;;;;13.57;7.07;;;;;;;-4.50;98.29;61548.38;5083000;28;20262;-77
2024/01/13 08:08:27;;;;;;;14.90;7.90;;;;;;;-4.92;98.17;61498.59;5089131;28;20250;-77
2024/01/13 08:10:54;;;;;;;14.63;6.78;;;;;;;-4.81;97.46;61507.34;5087312;28;20228;-78
2024/01/13 08:13:20;;;;;;;11.80;6.68;;;;;;;-4.68;97.41;61517.63;5084293;28;20481;-76
2024/01/13 08:15:48;;;;;;;12.90;7.13;;;;;;;-4.78;96.42;61515.38;5085423;28;20266;-77
2024/01/13 08:18:15;;;;;;;9.55;5.90;;;;;;;-4.69;95.92;61526.00;5083304;28;20231;-78
2024/01/13 08:20:41;;;;;;;10.82;5.82;;;;;;;-4.49;93.14;61538.97;5086076;28;20454;-77
2024/01/13 08:23:10;;;;;;;13.32;8.20;;;;;;;-4.49;91.34;61538.97;5081400;28;20231;-77
2024/01/13 08:25:37;;;;;;;12.25;7.30;;;;;;;-4.26;88.59;61567.41;5082756;28;20224;-77
2024/01/13 08:28:04;;;;;;;13.07;7.82;;;;;;;-4.13;87.68;61581.19;5082094;28;20232;-78
2024/01/13 08:30:31;;;;;;;13.63;6.72;;;;;;;-3.98;86.45;61598.44;5083832;28;20234;-76
2024/01/13 08:32:58;;;;;;;12.95;7.65;;;;;;;-3.88;86.25;61603.69;5083883;28;20201;-77
2024/01/13 08:35:24;;;;;;;10.57;7.07;;;;;;;-3.80;84.79;61614.84;5083580;28;20225;-76
2024/01/13 08:37:53;;;;;;;17.48;8.65;;;;;;;-3.68;84.37;61621.63;5080920;28;20201;-77
2024/01/13 08:40:22;;;;;;;15.13;7.15;;;;;;;-3.55;83.77;61637.38;5082477;28;20240;-78
2024/01/13 08:42:49;;;;;;;10.23;5.90;;;;;;;-3.51;81.99;61638.97;5088890;28;20200;-78
2024/01/13 08:45:16;;;;;;;12.38;6.07;;;;;;;-3.52;80.72;61640.94;5084601;28;20224;-79
2024/01/13 08:47:43;;;;;;;8.35;6.00;;;;;;;-3.48;82.18;61639.03;5084803;28;20266;-79
2024/01/13 08:50:11;;;;;;;10.45;7.20;;;;;;;-3.37;80.96;61655.25;5081070;28;20240;-80
2024/01/13 08:52:37;;;;;;;8.68;6.03;;;;;;;-3.32;80.97;61658.38;5084768;28;20196;-79
2024/01/13 08:55:05;;;;;;;9.30;5.75;;;;;;;-3.41;80.26;61651.16;5083510;28;20237;-79
2024/01/13 08:57:34;;;;;;;10.02;6.10;;;;;;;-3.34;80.53;61661.31;5087239;28;20258;-80
2024/01/13 09:00:01;;;;;;;9.02;6.00;;;;;;;-3.55;81.49;61635.41;5089151;28;20362;-80
2024/01/13 09:02:28;;;;;;;11.77;6.40;;;;;;;-3.61;80.61;61631.75;5085905;28;20220;-79
2024/01/13 09:04:55;;;;;;;11.60;6.55;;;;;;;-3.50;80.35;61641.97;5085927;28;20239;-80
2024/01/13 09:07:22;;;;;;;11.43;6.55;;;;;;;-3.17;80.13;61675.66;5091857;28;20235;-79
2024/01/13 09:09:49;;;;;;;10.85;5.70;;;;;;;-3.06;79.59;61681.94;5087401;28;20229;-79
2024/01/13 09:12:16;;;;;;;9.15;6.20;;;;;;;-3.02;80.68;61689.00;5088249;28;20208;-82
2024/01/13 09:14:45;;;;;;;9.80;6.60;;;;;;;-2.95;78.29;61698.66;5087073;28;20224;-80
2024/01/13 09:17:12;;;;;;;11.25;5.20;;;;;;;-2.92;76.93;61701.72;5086506;28;20255;-79
2024/01/13 09:19:39;;;;;;;11.05;6.97;;;;;;;-2.89;77.86;61699.28;5083448;28;20288;-78
2024/01/13 09:22:06;;;;;;;12.15;5.97;;;;;;;-2.93;77.52;61700.19;5086986;28;20204;-78
2024/01/13 09:24:33;;;;;;;8.60;5.57;;;;;;;-2.92;76.52;61701.22;5085837;28;20227;-79
2024/01/13 09:27:00;;;;;;;8.10;6.32;;;;;;;-2.98;77.40;61695.59;5088875;28;20207;-80
2024/01/13 09:29:27;;;;;;;5.00;4.50;;;;;;;-3.12;78.36;61680.78;5085487;28;20247;-78
2024/01/13 09:31:56;;;;;;;11.10;6.05;;;;;;;-2.96;78.72;61694.63;5090611;28;20204;-79
2024/01/13 09:34:22;;;;;;;7.20;5.63;;;;;;;-2.93;77.83;61700.69;5087241;28;20216;-79
2024/01/13 09:36:51;;;;;;;13.20;6.03;;;;;;;-3.08;78.65;61679.88;5086114;28;20211;-79
2024/01/13 09:39:18;;;;;;;6.47;4.85;;;;;;;-3.09;76.76;61686.34;5086392;28;20236;-79
2024/01/13 09:41:46;;;;;;;11.68;6.35;;;;;;;-3.19;76.21;61674.13;5086819;28;20204;-79
2024/01/13 09:44:16;;;;;;;9.70;6.28;;;;;;;-3.33;78.90;61659.84;5086839;28;20261;-79
2024/01/13 09:46:43;;;;;;;8.32;5.85;;;;;;;-3.42;77.92;61650.16;5085852;28;20204;-80
2024/01/13 09:49:12;;;;;;;7.13;5.30;;;;;;;-3.55;77.86;61637.88;5086443;28;20273;-81
2024/01/13 09:51:39;;;;;;;5.47;4.28;;;;;;;-3.49;80.08;61640.50;5086738;28;20208;-79
2024/01/13 09:54:10;;;;;;;11.80;6.03;;;;;;;-3.44;81.05;61646.13;5085643;28;20200;-80
2024/01/13 09:56:44;;;;;;;10.40;7.03;;;;;;;-3.35;80.42;61654.81;5086615;28;20201;-79
2024/01/13 09:59:11;;;;;;;10.13;6.95;;;;;;;-3.29;79.47;61661.44;5094324;28;20236;-79
2024/01/13 10:01:38;;;;;;;10.18;6.78;;;;;;;-3.34;79.07;61655.81;5090341;28;20283;-78
2024/01/13 10:04:05;;;;;;;12.13;6.55;;;;;;;-3.36;79.98;61658.75;5088254;28;20205;-81
2024/01/13 10:06:34;;;;;;;7.95;5.78;;;;;;;-3.19;80.55;61668.66;5090899;28;20205;-81
2024/01/13 10:09:01;;;;;;;8.27;5.82;;;;;;;-3.17;80.29;61678.16;5089257;28;20228;-79
2024/01/13 10:11:28;;;;;;;11.10;5.82;;;;;;;-3.02;81.35;61691.00;5088428;28;20197;-79
2024/01/13 10:14:01;;;;;;;8.43;5.60;;;;;;;-2.81;80.99;61710.47;5089590;28;20475;-79
2024/01/13 10:16:29;;;;;;;6.57;5.13;;;;;;;-2.81;79.59;61710.47;5090680;28;20376;-79
2024/01/13 10:18:56;;;;;;;8.15;5.22;;;;;;;-2.71;79.43;61723.19;5088875;28;20204;-79
2024/01/13 10:21:24;;;;;;;10.05;6.55;;;;;;;-2.60;78.22;61731.41;5093021;28;20219;-82
2024/01/13 10:23:54;;;;;;;11.20;6.85;;;;;;;-2.44;78.29;61750.28;5089458;28;20200;-79
2024/01/13 10:26:22;;;;;;;12.05;6.20;;;;;;;-2.43;78.18;61748.78;5090398;28;20204;-80
2024/01/13 10:28:50;;;;;;;6.28;4.65;;;;;;;-2.68;79.93;61728.75;5087604;28;20303;-80
2024/01/13 10:31:17;;;;;;;8.85;6.05;;;;;;;-2.69;80.11;61722.22;5090020;28;20204;-78
2024/01/13 10:33:45;;;;;;;7.78;5.18;;;;;;;-2.78;79.79;61713.03;5089608;28;20200;-78
2024/01/13 10:36:12;;;;;;;8.75;6.13;;;;;;;-2.87;81.74;61704.34;5086439;28;20217;-79
2024/01/13 10:38:39;;;;;;;9.52;5.53;;;;;;;-2.85;81.34;61703.91;5080412;28;20563;-78
2024/01/13 10:41:09;;;;;;;7.60;5.97;;;;;;;-3.02;81.88;61691.50;5090168;28;20424;-79
2024/01/13 10:43:36;;;;;;;9.98;4.88;;;;;;;-2.71;83.34;61723.19;5096056;28;20189;-80
2024/01/13 10:46:03;;;;;;;11.48;6.90;;;;;;;-2.45;81.10;61744.78;5091540;28;20228;-81
2024/01/13 10:48:36;;;;;;;14.90;7.72;;;;;;;-2.31;79.95;61763.56;5087792;28;20319;-78
2024/01/13 10:51:04;;;;;;;10.23;6.28;;;;;;;-2.58;78.74;61733.47;5087824;28;20224;-78
2024/01/13 10:53:31;;;;;;;9.07;6.43;;;;;;;-2.37;79.24;61757.44;5087870;28;20193;-79
2024/01/13 10:55:59;;;;;;;10.20;6.20;;;;;;;-2.28;78.93;61769.13;5088021;28;20225;-78
2024/01/13 10:58:27;;;;;;;12.65;7.18;;;;;;;-2.13;77.52;61781.97;5090222;28;20201;-78
2024/01/13 11:00:54;;;;;;;12.65;6.85;;;;;;;-2.08;76.26;61781.56;5089714;28;20304;-78
2024/01/13 11:03:21;;;;;;;7.90;4.90;;;;;;;-1.99;76.63;61795.78;5082784;28;20197;-78
2024/01/13 11:05:49;;;;;;;8.00;5.32;;;;;;;-2.05;74.75;61787.66;5087836;28;20227;-79
2024/01/13 11:08:16;;;;;;;8.23;6.03;;;;;;;-2.29;75.07;61765.59;5091165;28;20262;-78
2024/01/13 11:10:43;;;;;;;9.57;6.90;;;;;;;-2.36;77.14;61758.44;5087419;28;20224;-79
2024/01/13 11:13:13;;;;;;;9.90;6.25;;;;;;;-2.25;76.51;61767.19;5085885;28;20247;-77
2024/01/13 11:15:44;;;;;;;9.23;6.25;;;;;;;-2.14;76.10;61780.44;5089353;28;20216;-78
2024/01/13 11:18:13;;;;;;;10.30;7.00;;;;;;;-1.91;75.11;61804.47;5086445;28;20200;-78
2024/01/13 11:21:05;;;;;;;17.90;6.05;;;;;;;-1.94;74.18;61801.41;5083559;28;20238;-78